Archival Weather

Al Kharj

Al Kharj, Saudi Arabia (OEKJ)

Report from: Thursday, September 21, 2023 9:00 AM UTC
Current time: Friday, February 23, 2024 8:37 PM UTC

Current weather – Weather history – Daily summaries
Weather forecast

Temperature40.0°C (104.0°F)
Heat index36.5°C (97.6°F)
Dew point-7.0°C (19.4°F)
Winds 11 kts (5.7 m/s, 12.7 mph) East (80°)
Clouds Sky clear
Altimeter29.88 in.Hg (1012 mB)
Relative humidity5 %
Density altitude2,918 ft. (889 m)
Remarks Ceiling and visibility OK
Flight conditions Visual Meteorological Conditions
Raw dataOEKJ 210900Z 08011KT CAVOK 40/M07 Q1012
An error has occurred. This application may no longer respond until reloaded. Reload 🗙